Andrew Morris

Scout - Manchester City
17 Feb 2028
Thursday
Process

Personality

Adaptability (4) Ambition (13) Controversy (18) Loyalty (4) Pressure (19) Professionalism (7) Sportsmanship (12) Temperament (6)

Profile

Coaching Style Democratic
License Continental C
Determination 14
Man Management 8
Motivating 10
Discipline 17
Job Satisfaction
100%
Fatigue
0%
Role Scout
Wage 130.8K p/w
Contract 14.03.2029

Performance

Behaviour Good
Training Effectiveness
61%
Player Development
70%
Injury Prevention
85%
Tactical Implementation
50%

Recent Events

Attended a recruitment meeting now
Recommended a transfer target now
Attended a recruitment meeting 7d ago
Recommended a transfer target 7d ago
Recommended a transfer target 7d ago
Recommended a transfer target 7d ago
Assessed a player 14d ago
Birthday 14d ago

Currently Monitoring

77
Player Club Status Ability Confidence Watched Last Observed Latest Vote
Levi Colwill Chelsea Active 174 / 162 40% 5 01.02.2028 -
Roméo Lavia Blackburn Rovers Active 154 / 153 40% 1 01.02.2028 -
Alexis Mac Allister Liverpool Active 175 / 167 40% 14 24.01.2028 -
Martin Ødegaard Arsenal Lost 191 / 182 40% 1 24.01.2028 -
Jeremie Frimpong Liverpool Active 157 / 166 40% 7 18.01.2028 -
Wesley Fofana Chelsea Lost 163 / 166 40% 2 18.01.2028 -
Dominik Szoboszlai Liverpool Lost 180 / 169 40% 2 10.01.2028 -
Martín Zubimendi Arsenal Lost 166 / 166 40% 3 10.01.2028 -
Mao Hosoya Everton Active 134 / 135 67% 1 01.01.2028 Approve
Franculino Crystal Palace Negotiating 137 / 141 67% 1 01.01.2028 Approve
Bukayo Saka Arsenal Lost 183 / 183 62% 1 01.01.2028 -
Noah Sadiki Sunderland Active 149 / 152 40% 1 01.01.2028 -
Malo Gusto Chelsea Active 161 / 153 40% 1 01.01.2028 -
William Saliba Arsenal Active 179 / 180 40% 11 31.12.2027 -
Riccardo Calafiori Hull City Active 170 / 163 40% 1 16.08.2027 -
Benjamin White Arsenal Active 154 / 160 40% 9 09.08.2027 -
Pierre Kalulu Juventus Active 149 / 155 40% 6 08.08.2027 -
Micky van de Ven Tottenham Active 157 / 161 40% 6 08.08.2027 -
Moisés Caicedo Chelsea Active 178 / 173 40% 20 07.08.2027 -
Curtis Jones Inter Active 153 / 160 40% 3 05.08.2027 -
Khéphren Thuram Aston Villa Active 167 / 162 40% 1 05.08.2027 -
Sven Botman Newcastle United Active 164 / 161 40% 3 04.08.2027 -
Ryan Gravenberch Liverpool Active 173 / 165 40% 7 04.08.2027 -
Federico Dimarco Inter Lost 172 / 164 40% 13 02.08.2027 -
Gabriel Arsenal Active 175 / 173 40% 6 29.07.2027 -
Jurriën Timber Arsenal Active 176 / 167 40% 6 29.07.2027 -
Kenan Yıldız Juventus Active 174 / 162 40% 3 27.07.2027 -
Nicolò Barella Chelsea Active 174 / 169 40% 8 27.07.2027 -
Cody Gakpo Liverpool Active 165 / 163 40% 5 25.07.2027 -
Bruno Guimarães Arsenal Active 184 / 174 40% 8 24.07.2027 -
Morgan Rogers Chelsea Active 176 / 159 40% 4 22.07.2027 -
Joško Gvardiol Napoli Lost 163 / 166 40% 7 22.07.2027 -
Declan Rice Arsenal Lost 195 / 185 40% 8 04.07.2027 -
Sandro Tonali Tottenham Active 164 / 171 40% 11 02.07.2027 -
Alessandro Bastoni Inter Active 164 / 163 40% 3 08.06.2027 -
Stanislav Agkatsev Sunderland Active 132 / 133 66% 1 01.06.2027 Approve
Kai Havertz Arsenal Active 159 / 160 40% 10 30.05.2027 -
Francisco Conceição Juventus Active 160 / 157 40% 3 30.05.2027 -
Amadou Onana Aston Villa Active 147 / 156 40% 4 26.05.2027 -
Alessandro Buongiorno Sassuolo Active 159 / 155 40% 4 22.05.2027 -
Dejan Kulusevski Tottenham Active 173 / 168 40% 8 18.05.2027 -
Leo Castledine Middlesbrough Active 117 / 133 40% 1 17.05.2027 -
Francesco Pio Esposito Inter Active 141 / 150 40% 1 17.05.2027 -
Jan Paul van Hecke Tottenham Active 149 / 155 40% 2 15.05.2027 -
Nico González Newcastle United Active 154 / 163 40% 4 13.05.2027 -
Gabriel Martinelli Brighton Active 176 / 164 40% 10 04.05.2027 -
Mohammed Kudus Tottenham Active 168 / 154 40% 4 01.05.2027 -
James Maddison Tottenham Active 163 / 158 40% 1 24.04.2027 -
Matías Soulé AS Roma Active 168 / 156 40% 3 22.04.2027 -
Miloš Kerkez Liverpool Active 147 / 155 40% 3 21.04.2027 -
Alexander Isak Liverpool Active 180 / 171 40% 2 18.04.2027 -
Reece James Chelsea Active 163 / 170 40% 2 31.03.2027 -
Tino Livramento Newcastle United Active 145 / 157 40% 1 16.03.2027 -
Bradley Barcola Liverpool Lost 165 / 159 40% 5 09.03.2027 -
Federico Chiesa Liverpool Active 147 / 152 40% 1 05.03.2027 -
Evidence Makgopa Orlando Pirates Active 115 / 110 40% 1 31.12.2026 -
Giacomo Raspadori Atalanta Active 139 / 145 40% 1 31.12.2026 -
Dango Ouattara Brentford Active 135 / 146 40% 2 29.12.2026 -
Themba Ngcobo SuperSport United Active 120 / 119 40% 2 28.12.2026 -
Robert Mizo Ashanti Gold Active 116 / 103 40% 3 26.12.2026 -
Etiosa Ighodaro Kaizer Chiefs Active 112 / 111 40% 1 26.12.2026 -
Thiago Brentford Active 158 / 149 40% 2 24.12.2026 -
Nicolas Jackson Aston Villa Active 158 / 145 40% 1 22.12.2026 -
Iliman N'Diaye Everton Active 166 / 155 40% 6 21.12.2026 -
Mandla Mahlangu Ajax Cape Town Active 105 / 107 40% 7 15.12.2026 -
Luis Vázquez Birmingham Active 142 / 126 40% 1 12.12.2026 -
Georginio Rutter Brighton Active 142 / 145 40% 2 08.12.2026 -
Yousef Salech Cardiff City Active 128 / 125 40% 1 23.11.2026 -
Rafael Navarro St. Louis CITY SC Active 128 / 129 40% 4 22.11.2026 -
Wessam Abou Ali Columbus Crew Active 145 / 127 40% 5 12.11.2026 -
Bénie Traoré New York City Active 140 / 123 40% 3 29.10.2026 -
Dejan Joveljić Seattle Sounders Active 130 / 126 40% 3 20.10.2026 -
Kévin Denkey FC Cincinnati Active 126 / 128 40% 2 19.10.2026 -
Tadeo Allende Inter Miami CF Active 120 / 120 40% 1 09.10.2026 -
Tomás Chancalay Minnesota United FC Active 142 / 126 40% 2 05.10.2026 -
Martín Ojeda Orlando City Active 119 / 131 40% 1 04.10.2026 -
Cheikh Sabaly Vancouver Whitecaps Active 117 / 124 40% 1 21.09.2026 -